Terminal Aerodrome Forecast
Issued by NWS

Home | Current Version | Previous Version | Text Only | Print | Product List | Glossary On
Versions: 1 2 3 4 5 6 7 8 9 10 11 12 13
000
FTUS44 KLIX 281700
TAFMCB
TAF
KMCB 281735Z 2818/0118 09008KT P6SM FEW100
     FM010000 08004KT P6SM FEW100
     FM010500 10004KT P6SM BKN100
     FM011000 11006KT P6SM BKN025
     FM011100 12007KT P6SM BKN003
     FM011500 12006KT P6SM OVC008=

USA.gov is the U.S. government's official web portal to all federal, state and local government web resources and services.